Time;durP1;ratioP1;P1;durP2;ratioP2;P2;SDS_P1;SDS_P2;PMS_P1;PMS_P2;Temp;Humidity;BMP_temperature;BMP_pressure;BME280_temperature;BME280_humidity;BME280_pressure;Samples;Min_cycle;Max_cycle;Signal;HPM_P1;HPM_P2
2024/01/21 00:00:11;;;;;;;15.15;6.55;;;;;;;-148.88;89.54;-17125.47;5056763;28;20055;-84
2024/01/21 00:02:36;;;;;;;17.98;7.28;;;;;;;-148.88;90.33;-17125.47;5055399;28;20041;-85
2024/01/21 00:05:02;;;;;;;17.75;6.82;;;;;;;-148.88;90.85;-17125.47;5055518;28;20028;-88
2024/01/21 00:07:27;;;;;;;17.27;7.30;;;;;;;-148.88;90.61;-17125.47;5055858;28;20021;-84
2024/01/21 00:09:53;;;;;;;19.48;6.35;;;;;;;-148.88;90.80;-17125.47;5055907;28;20119;-84
2024/01/21 00:12:19;;;;;;;19.77;7.35;;;;;;;-148.88;90.81;-17125.47;5057283;28;20059;-84
2024/01/21 00:14:44;;;;;;;17.38;6.57;;;;;;;-148.88;90.83;-17125.47;5055574;28;20064;-83
2024/01/21 00:17:09;;;;;;;16.70;7.38;;;;;;;-148.88;91.63;-17125.47;5055885;28;20119;-86
2024/01/21 00:19:35;;;;;;;15.18;6.57;;;;;;;-148.88;91.40;-17125.47;5055635;28;20033;-87
2024/01/21 00:22:00;;;;;;;17.00;6.28;;;;;;;-148.88;91.00;-17125.47;5055623;28;20074;-86
2024/01/21 00:24:25;;;;;;;21.55;7.50;;;;;;;-148.88;90.63;-17125.47;5057115;28;20079;-83
2024/01/21 00:26:51;;;;;;;16.23;7.50;;;;;;;-148.88;90.85;-17125.47;5057248;28;20033;-86
2024/01/21 00:29:16;;;;;;;25.35;8.88;;;;;;;-148.88;90.92;-17125.47;5056826;28;20487;-86
2024/01/21 00:31:42;;;;;;;18.58;7.68;;;;;;;-148.88;90.92;-17125.47;5055638;28;20036;-86
2024/01/21 00:34:07;;;;;;;20.33;7.43;;;;;;;-148.88;91.79;-17125.47;5055101;28;20071;-85
2024/01/21 00:36:33;;;;;;;21.55;7.38;;;;;;;-148.88;92.44;-17125.47;5055628;28;20021;-84
2024/01/21 00:38:58;;;;;;;17.13;6.55;;;;;;;-148.88;93.08;-17125.47;5054993;28;20024;-84
2024/01/21 00:41:23;;;;;;;19.02;7.55;;;;;;;-148.88;92.98;-17125.47;5056033;28;20017;-85
2024/01/21 00:43:49;;;;;;;19.63;8.02;;;;;;;-148.88;93.07;-17125.47;5056447;28;20029;-84
2024/01/21 00:46:14;;;;;;;25.77;9.25;;;;;;;-148.88;93.51;-17125.47;5054765;28;20033;-84
2024/01/21 00:48:40;;;;;;;18.85;7.63;;;;;;;-148.88;93.17;-17125.47;5056323;28;20031;-85
2024/01/21 00:51:05;;;;;;;19.30;7.72;;;;;;;-148.88;92.12;-17125.47;5055159;28;20017;-85
2024/01/21 00:53:31;;;;;;;21.52;8.00;;;;;;;-148.88;91.78;-17125.47;5055710;28;20422;-86
2024/01/21 00:55:56;;;;;;;21.98;8.50;;;;;;;-148.88;91.67;-17125.47;5053638;28;20029;-84
2024/01/21 00:58:22;;;;;;;19.48;7.70;;;;;;;-148.88;90.72;-17125.47;5056110;28;20064;-84
2024/01/21 01:00:47;;;;;;;19.35;7.57;;;;;;;-148.88;90.94;-17125.47;5056189;28;20025;-87
2024/01/21 01:03:15;;;;;;;20.13;7.80;;;;;;;-148.88;90.83;-17125.47;5056003;28;20471;-86
2024/01/21 01:05:40;;;;;;;20.73;7.82;;;;;;;-148.88;91.45;-17125.47;5054345;28;20017;-86
2024/01/21 01:08:07;;;;;;;21.67;8.80;;;;;;;-148.88;91.62;-17125.47;5055633;28;20028;-87
2024/01/21 01:10:33;;;;;;;20.20;8.32;;;;;;;-148.88;90.74;-17125.47;5055776;28;20471;-87
2024/01/21 01:12:58;;;;;;;16.40;7.45;;;;;;;-148.88;90.09;-17125.47;5054332;28;20071;-86
2024/01/21 01:15:24;;;;;;;18.45;6.95;;;;;;;-148.88;89.10;-17125.47;5054540;28;20056;-86
2024/01/21 01:17:51;;;;;;;16.70;7.38;;;;;;;-148.88;89.00;-17125.47;5056102;28;20028;-86
2024/01/21 01:20:19;;;;;;;21.50;8.35;;;;;;;-148.88;89.02;-17125.47;5054991;28;20024;-85
2024/01/21 01:22:44;;;;;;;22.23;7.80;;;;;;;-148.88;89.63;-17125.47;5056492;28;20100;-84
2024/01/21 01:25:10;;;;;;;14.25;6.00;;;;;;;-148.88;89.56;-17125.47;5054657;28;20476;-86
2024/01/21 01:27:35;;;;;;;19.20;7.65;;;;;;;-148.88;89.33;-17125.47;5054850;28;20025;-85
2024/01/21 01:30:01;;;;;;;16.63;6.20;;;;;;;-148.88;88.85;-17125.47;5055042;28;20384;-85
2024/01/21 01:32:26;;;;;;;18.65;6.50;;;;;;;-148.88;88.57;-17125.47;5054473;28;20108;-86
2024/01/21 01:34:54;;;;;;;15.48;5.93;;;;;;;-148.88;88.63;-17125.47;5055537;28;20404;-85
2024/01/21 01:37:21;;;;;;;16.23;6.65;;;;;;;-148.88;89.22;-17125.47;5054530;28;20078;-86
2024/01/21 01:39:46;;;;;;;19.08;6.63;;;;;;;-148.88;89.34;-17125.47;5054173;28;20070;-85
2024/01/21 01:42:11;;;;;;;20.80;8.45;;;;;;;-148.88;90.04;-17125.47;5055721;28;20107;-86
2024/01/21 01:44:40;;;;;;;17.08;7.63;;;;;;;-148.88;90.28;-17125.47;5056003;28;20093;-85
2024/01/21 01:47:07;;;;;;;22.83;7.60;;;;;;;-148.88;90.00;-17125.47;5055700;28;20107;-85
2024/01/21 01:49:32;;;;;;;20.77;7.55;;;;;;;-148.88;90.23;-17125.47;5055325;28;20101;-85
2024/01/21 01:51:57;;;;;;;23.75;8.75;;;;;;;-148.88;91.00;-17125.47;5055500;28;20448;-85
2024/01/21 01:54:28;;;;;;;21.58;7.43;;;;;;;-148.88;91.63;-17125.47;5054472;28;20419;-85
2024/01/21 01:56:53;;;;;;;21.30;7.25;;;;;;;-148.88;92.26;-17125.47;5058446;28;20040;-85
2024/01/21 01:59:19;;;;;;;15.60;6.38;;;;;;;-148.88;92.21;-17125.47;5080141;28;20013;-84
2024/01/21 02:01:46;;;;;;;18.42;7.55;;;;;;;-148.88;92.02;-17125.47;5073733;28;20032;-86
2024/01/21 02:04:11;;;;;;;18.88;6.68;;;;;;;-148.88;91.60;-17125.47;5054718;28;20044;-86
2024/01/21 02:06:38;;;;;;;16.83;6.75;;;;;;;-148.88;91.63;-17125.47;5055755;28;20024;-86
2024/01/21 02:09:05;;;;;;;18.92;6.72;;;;;;;-148.88;90.93;-17125.47;5055799;28;20469;-86
2024/01/21 02:11:30;;;;;;;20.15;7.40;;;;;;;-148.88;90.88;-17125.47;5054813;28;20471;-85
2024/01/21 02:13:56;;;;;;;20.25;7.93;;;;;;;-148.88;90.43;-17125.47;5053653;28;20059;-86
2024/01/21 02:16:21;;;;;;;18.85;7.32;;;;;;;-148.88;90.78;-17125.47;5054990;28;20365;-86
2024/01/21 02:18:48;;;;;;;20.77;7.40;;;;;;;-148.88;90.78;-17125.47;5053648;28;20031;-85
2024/01/21 02:21:14;;;;;;;17.88;5.72;;;;;;;-148.88;90.51;-17125.47;5054490;28;20063;-85
2024/01/21 02:23:39;;;;;;;13.95;6.20;;;;;;;-148.88;90.99;-17125.47;5053226;28;20056;-86
2024/01/21 02:26:05;;;;;;;20.85;6.95;;;;;;;-148.88;90.75;-17125.47;5054358;28;20025;-86
2024/01/21 02:28:30;;;;;;;15.65;6.78;;;;;;;-148.88;90.68;-17125.47;5054667;28;20052;-85
2024/01/21 02:30:55;;;;;;;17.42;6.22;;;;;;;-148.88;90.93;-17125.47;5054398;28;20033;-85
2024/01/21 02:33:21;;;;;;;21.70;6.75;;;;;;;-148.88;90.48;-17125.47;5052821;28;20025;-86
2024/01/21 02:35:46;;;;;;;14.65;5.97;;;;;;;-148.88;90.40;-17125.47;5054372;28;20021;-86
2024/01/21 02:38:11;;;;;;;22.25;7.85;;;;;;;-148.88;90.55;-17125.47;5053532;28;20029;-85
2024/01/21 02:40:38;;;;;;;16.05;5.85;;;;;;;-148.88;90.64;-17125.47;5052565;28;20450;-86
2024/01/21 02:43:04;;;;;;;15.30;5.82;;;;;;;-148.88;89.41;-17125.47;5053951;28;20104;-86
2024/01/21 02:45:30;;;;;;;15.68;6.40;;;;;;;-148.88;89.56;-17125.47;5052743;28;20074;-86
2024/01/21 02:47:55;;;;;;;17.05;5.93;;;;;;;-148.88;89.19;-17125.47;5052872;28;20025;-86
2024/01/21 02:50:21;;;;;;;16.67;6.22;;;;;;;-148.88;87.47;-17125.47;5053839;28;20025;-85
2024/01/21 02:52:46;;;;;;;16.77;6.40;;;;;;;-148.88;86.64;-17125.47;5052871;28;20029;-85
2024/01/21 02:55:14;;;;;;;12.63;4.88;;;;;;;-148.88;85.50;-17125.47;5052457;28;20017;-84
2024/01/21 02:57:40;;;;;;;13.00;4.80;;;;;;;-148.88;84.56;-17125.47;5064745;28;20033;-86
2024/01/21 03:00:07;;;;;;;13.27;5.72;;;;;;;-148.88;84.06;-17125.47;5054146;28;20074;-86
2024/01/21 03:02:32;;;;;;;15.20;5.70;;;;;;;-148.88;83.55;-17125.47;5053560;28;20028;-86
2024/01/21 03:04:58;;;;;;;16.92;4.78;;;;;;;-148.88;82.79;-17125.47;5053995;28;20032;-86
2024/01/21 03:07:23;;;;;;;12.20;4.75;;;;;;;-148.88;80.61;-17125.47;5054290;28;20025;-86
2024/01/21 03:09:48;;;;;;;10.65;4.50;;;;;;;-148.88;80.00;-17125.47;5053903;28;20064;-85
2024/01/21 03:12:14;;;;;;;12.00;4.00;;;;;;;-148.88;79.63;-17125.47;5054257;28;20052;-85
2024/01/21 03:14:40;;;;;;;7.72;3.80;;;;;;;-148.88;78.40;-17125.47;5053031;28;20048;-85
2024/01/21 03:17:05;;;;;;;12.88;4.72;;;;;;;-148.88;77.44;-17125.47;5053835;28;20468;-85
2024/01/21 03:19:31;;;;;;;11.70;3.80;;;;;;;-148.88;76.10;-17125.47;5053113;28;20422;-85
2024/01/21 03:21:56;;;;;;;11.43;4.43;;;;;;;-148.88;75.77;-17125.47;5052013;28;20064;-85
2024/01/21 03:24:22;;;;;;;10.40;3.72;;;;;;;-148.88;75.13;-17125.47;5053125;28;20402;-85
2024/01/21 03:26:47;;;;;;;8.73;4.03;;;;;;;-148.88;73.69;-17125.47;5051988;28;20542;-85
2024/01/21 03:29:12;;;;;;;8.93;3.70;;;;;;;-148.88;73.34;-17125.47;5052195;28;20047;-86
2024/01/21 03:31:38;;;;;;;9.50;3.60;;;;;;;-148.88;73.35;-17125.47;5052255;28;20036;-85
2024/01/21 03:34:04;;;;;;;11.05;4.25;;;;;;;-148.88;74.16;-17125.47;5053071;28;20025;-85
2024/01/21 03:36:29;;;;;;;9.77;3.45;;;;;;;-148.88;73.77;-17125.47;5054072;28;20479;-85
2024/01/21 03:38:55;;;;;;;10.80;4.05;;;;;;;-148.88;73.84;-17125.47;5053113;28;20036;-86
2024/01/21 03:41:20;;;;;;;9.93;3.58;;;;;;;-148.88;73.59;-17125.47;5051647;28;20028;-86
2024/01/21 03:43:45;;;;;;;6.82;3.08;;;;;;;-148.88;71.59;-17125.47;5051601;28;20079;-87
2024/01/21 03:46:11;;;;;;;8.82;3.22;;;;;;;-148.88;69.93;-17125.47;5052992;28;20028;-84
2024/01/21 03:48:36;;;;;;;13.63;3.88;;;;;;;-148.88;69.41;-17125.47;5051673;28;20025;-86
2024/01/21 03:51:02;;;;;;;8.68;3.10;;;;;;;-148.88;68.43;-17125.47;5053082;28;20028;-86
2024/01/21 03:53:27;;;;;;;10.15;3.85;;;;;;;-148.88;69.06;-17125.47;5052810;28;20021;-86
2024/01/21 03:55:53;;;;;;;9.77;3.83;;;;;;;-148.88;69.23;-17125.47;5052956;28;20033;-86
2024/01/21 03:58:18;;;;;;;9.38;3.20;;;;;;;-148.88;69.29;-17125.47;5052935;28;20078;-86
2024/01/21 04:00:44;;;;;;;8.13;3.08;;;;;;;-148.88;69.96;-17125.47;5052929;28;20021;-83
2024/01/21 04:03:09;;;;;;;9.00;3.15;;;;;;;-148.88;71.28;-17125.47;5053144;28;20464;-86
2024/01/21 04:05:34;;;;;;;7.80;2.90;;;;;;;-148.88;71.67;-17125.47;5077941;28;20016;-85
2024/01/21 04:08:00;;;;;;;6.43;2.95;;;;;;;-148.88;71.13;-17125.47;5060942;28;20032;-85
2024/01/21 04:10:25;;;;;;;6.72;3.05;;;;;;;-148.88;70.13;-17125.47;5051535;28;20033;-86
2024/01/21 04:12:51;;;;;;;11.25;3.97;;;;;;;-148.88;69.15;-17125.47;5053003;28;20515;-85
2024/01/21 04:15:16;;;;;;;8.95;3.35;;;;;;;-148.88;68.92;-17125.47;5051499;28;20029;-85
2024/01/21 04:17:42;;;;;;;7.15;3.42;;;;;;;-148.88;67.60;-17125.47;5052819;28;20024;-85
2024/01/21 04:20:08;;;;;;;10.30;3.75;;;;;;;-148.88;67.71;-17125.47;5063701;28;20071;-86
2024/01/21 04:22:34;;;;;;;10.57;3.55;;;;;;;-148.88;66.50;-17125.47;5052497;28;20025;-86
2024/01/21 04:25:00;;;;;;;9.32;3.45;;;;;;;-148.88;66.49;-17125.47;5053622;28;20100;-86
2024/01/21 04:27:25;;;;;;;10.05;3.63;;;;;;;-148.88;66.79;-17125.47;5052911;28;20021;-86
2024/01/21 04:29:51;;;;;;;8.88;3.47;;;;;;;-148.88;66.76;-17125.47;5054429;28;20031;-86
2024/01/21 04:32:17;;;;;;;9.50;4.10;;;;;;;-148.88;67.31;-17125.47;5056069;28;20048;-85
2024/01/21 04:34:42;;;;;;;11.73;4.07;;;;;;;-148.88;66.59;-17125.47;5055898;28;20064;-84
2024/01/21 04:37:08;;;;;;;8.10;3.58;;;;;;;-148.88;66.24;-17125.47;5056636;28;20102;-85
2024/01/21 04:39:33;;;;;;;9.73;3.75;;;;;;;-148.88;66.41;-17125.47;5056617;28;20029;-85
2024/01/21 04:41:59;;;;;;;11.95;3.80;;;;;;;-148.88;65.73;-17125.47;5053846;28;20037;-85
2024/01/21 04:44:24;;;;;;;8.63;3.58;;;;;;;-148.88;65.26;-17125.47;5056242;28;20057;-86
2024/01/21 04:46:50;;;;;;;9.82;3.67;;;;;;;-148.88;65.18;-17125.47;5054921;28;20017;-85
2024/01/21 04:49:15;;;;;;;8.70;3.28;;;;;;;-148.88;65.59;-17125.47;5054951;28;20357;-85
2024/01/21 04:51:41;;;;;;;10.00;3.63;;;;;;;-148.88;65.89;-17125.47;5055328;28;20111;-83
2024/01/21 04:54:07;;;;;;;10.32;3.70;;;;;;;-148.88;65.66;-17125.47;5057172;28;20025;-83
2024/01/21 04:56:33;;;;;;;7.22;3.45;;;;;;;-148.88;66.86;-17125.47;5057285;28;20032;-83
2024/01/21 04:58:58;;;;;;;7.88;3.75;;;;;;;-148.88;67.33;-17125.47;5057793;28;20028;-85
2024/01/21 05:01:24;;;;;;;9.10;3.55;;;;;;;-148.88;67.85;-17125.47;5056660;28;20017;-84
2024/01/21 05:03:50;;;;;;;7.60;3.13;;;;;;;-148.88;66.72;-17125.47;5055256;28;20028;-84
2024/01/21 05:06:16;;;;;;;9.15;3.65;;;;;;;-148.88;66.38;-17125.47;5056383;28;20391;-84
2024/01/21 05:08:42;;;;;;;10.25;3.78;;;;;;;-148.88;66.36;-17125.47;5054981;28;20025;-85
2024/01/21 05:11:14;;;;;;;9.88;3.67;;;;;;;-148.88;65.91;-17125.47;5055171;28;20476;-84
2024/01/21 05:13:39;;;;;;;12.50;3.95;;;;;;;-148.88;66.28;-17125.47;5056522;28;20387;-84
2024/01/21 05:16:05;;;;;;;8.60;3.63;;;;;;;-148.88;66.73;-17125.47;5056177;28;20032;-84
2024/01/21 05:18:30;;;;;;;7.68;3.40;;;;;;;-148.88;67.69;-17125.47;5056599;28;20483;-83
2024/01/21 05:20:56;;;;;;;8.43;3.83;;;;;;;-148.88;67.38;-17125.47;5056200;28;20056;-82
2024/01/21 05:23:21;;;;;;;10.52;3.38;;;;;;;-148.88;68.43;-17125.47;5056078;28;20021;-84
2024/01/21 05:25:50;;;;;;;9.73;3.58;;;;;;;-148.88;67.73;-17125.47;5055821;28;20017;-83
2024/01/21 05:28:16;;;;;;;10.52;3.58;;;;;;;-148.88;68.11;-17125.47;5055967;28;20025;-84
2024/01/21 05:30:41;;;;;;;8.82;3.65;;;;;;;-148.88;68.86;-17125.47;5055844;28;20071;-84
2024/01/21 05:33:17;;;;;;;11.75;3.42;;;;;;;-148.88;68.18;-17125.47;5054380;28;20025;-86
2024/01/21 05:35:42;;;;;;;9.38;3.17;;;;;;;-148.88;68.08;-17125.47;5055514;28;20109;-85
2024/01/21 05:38:08;;;;;;;7.65;3.30;;;;;;;-148.88;67.04;-17125.47;5055365;28;20056;-85
2024/01/21 05:40:34;;;;;;;8.48;3.33;;;;;;;-148.88;66.39;-17125.47;5054440;28;20029;-85
2024/01/21 05:43:00;;;;;;;7.88;3.63;;;;;;;-148.88;66.27;-17125.47;5053595;28;20491;-85
2024/01/21 05:45:26;;;;;;;7.82;3.50;;;;;;;-148.88;66.34;-17125.47;5054330;28;20059;-85
2024/01/21 05:47:51;;;;;;;7.90;3.20;;;;;;;-148.88;65.91;-17125.47;5055733;28;20056;-85
2024/01/21 05:50:17;;;;;;;7.40;3.33;;;;;;;-148.88;65.77;-17125.47;5053690;28;20021;-85
2024/01/21 05:52:42;;;;;;;10.43;3.88;;;;;;;-148.88;66.02;-17125.47;5053799;28;20039;-86
2024/01/21 05:55:08;;;;;;;6.22;3.05;;;;;;;-148.88;66.81;-17125.47;5055327;28;20017;-84
2024/01/21 05:57:33;;;;;;;9.73;3.38;;;;;;;-148.88;67.11;-17125.47;5053997;28;20483;-84
2024/01/21 06:00:01;;;;;;;8.27;3.35;;;;;;;-148.88;67.07;-17125.47;5053865;28;20039;-85
2024/01/21 06:02:26;;;;;;;8.27;3.22;;;;;;;-148.88;66.54;-17125.47;5053823;28;20095;-86
2024/01/21 06:04:51;;;;;;;8.60;3.45;;;;;;;-148.88;66.81;-17125.47;5055499;28;20111;-85
2024/01/21 06:07:18;;;;;;;8.38;3.05;;;;;;;-148.88;66.53;-17125.47;5055144;28;20021;-84
2024/01/21 06:09:43;;;;;;;7.95;3.55;;;;;;;-148.88;67.36;-17125.47;5053446;28;20499;-84
2024/01/21 06:12:08;;;;;;;9.75;3.25;;;;;;;-148.88;67.53;-17125.47;5054723;28;20040;-85
2024/01/21 06:14:34;;;;;;;11.82;3.20;;;;;;;-148.88;68.06;-17125.47;5054530;28;20190;-86
2024/01/21 06:17:05;;;;;;;10.70;3.38;;;;;;;-148.88;68.53;-17125.47;5053870;28;20033;-86
2024/01/21 06:19:39;;;;;;;8.73;3.65;;;;;;;-148.88;69.96;-17125.47;5054400;28;20094;-84
2024/01/21 06:22:23;;;;;;;8.82;3.30;;;;;;;-148.88;69.99;-17125.47;5074282;28;20010;-85
2024/01/21 06:25:01;;;;;;;9.55;3.13;;;;;;;-148.88;70.17;-17125.47;5077902;28;20019;-84
2024/01/21 06:27:35;;;;;;;7.07;2.65;;;;;;;-148.88;69.50;-17125.47;5055673;28;20024;-86
2024/01/21 06:30:29;;;;;;;8.68;3.10;;;;;;;-148.88;68.90;-17125.47;5057245;28;20070;-86
2024/01/21 06:33:23;;;;;;;7.30;3.30;;;;;;;-148.88;69.65;-17125.47;5057628;28;20052;-86
2024/01/21 06:37:17;;;;;;;8.30;3.22;;;;;;;-148.88;70.31;-17125.47;5054766;28;20036;-86
2024/01/21 06:39:24;;;;;;;8.45;2.92;;;;;;;-148.88;70.85;-17125.47;5051590;28;20029;-86
2024/01/21 06:42:05;;;;;;;9.32;2.78;;;;;;;-148.88;70.35;-17125.47;5055861;28;20476;-85
2024/01/21 06:44:35;;;;;;;7.70;2.08;;;;;;;-148.88;64.29;-17125.47;5056977;28;20070;-85
2024/01/21 06:47:00;;;;;;;3.78;1.58;;;;;;;-148.88;56.05;-17125.47;5056648;28;20021;-84
2024/01/21 06:49:31;;;;;;;2.40;1.00;;;;;;;-148.88;52.62;-17125.47;5060130;28;20017;-85
2024/01/21 06:51:56;;;;;;;4.30;1.83;;;;;;;-148.88;51.10;-17125.47;5059105;28;20021;-85
2024/01/21 06:54:22;;;;;;;5.63;1.50;;;;;;;-148.88;49.15;-17125.47;5059627;28;20082;-84
2024/01/21 06:56:50;;;;;;;2.20;1.00;;;;;;;-148.88;47.78;-17125.47;5057695;28;20025;-85
2024/01/21 06:59:21;;;;;;;1.55;1.00;;;;;;;-148.88;45.33;-17125.47;5059691;28;20021;-85
2024/01/21 07:01:50;;;;;;;3.60;1.55;;;;;;;-148.88;44.02;-17125.47;5058171;28;20032;-84
2024/01/21 07:04:18;;;;;;;3.83;1.25;;;;;;;-148.88;44.34;-17125.47;5058097;28;20021;-84
2024/01/21 07:06:52;;;;;;;4.50;1.30;;;;;;;-148.88;44.21;-17125.47;5057990;28;20423;-84
2024/01/21 07:09:29;;;;;;;4.00;1.35;;;;;;;-148.88;43.04;-17125.47;5057451;28;20040;-84
2024/01/21 07:12:00;;;;;;;3.58;1.45;;;;;;;-148.88;42.72;-17125.47;5058328;28;20037;-84
2024/01/21 07:14:34;;;;;;;3.25;1.52;;;;;;;-148.88;42.09;-17125.47;5053087;28;20043;-84
2024/01/21 07:17:08;;;;;;;4.28;1.60;;;;;;;-148.88;41.30;-17125.47;5053694;28;20102;-83
2024/01/21 07:20:15;;;;;;;2.65;1.30;;;;;;;-148.88;41.00;-17125.47;5053740;28;20411;-84
2024/01/21 07:22:47;;;;;;;5.53;1.42;;;;;;;-148.88;41.67;-17125.47;5048900;28;20040;-84
2024/01/21 07:25:28;;;;;;;6.78;1.40;;;;;;;-148.88;41.84;-17125.47;5053527;28;20024;-85
2024/01/21 07:28:03;;;;;;;5.50;1.92;;;;;;;-148.88;42.20;-17125.47;5054188;28;20041;-84
2024/01/21 07:30:34;;;;;;;4.22;1.75;;;;;;;-148.88;41.60;-17125.47;5054540;28;20116;-84
2024/01/21 07:32:59;;;;;;;3.42;1.52;;;;;;;-148.88;41.85;-17125.47;5053066;28;20103;-82
2024/01/21 07:35:25;;;;;;;2.92;1.45;;;;;;;-148.88;41.54;-17125.47;5053294;28;20175;-84
2024/01/21 07:37:50;;;;;;;5.15;1.77;;;;;;;-148.88;41.37;-17125.47;5054377;28;20025;-83
2024/01/21 07:40:26;;;;;;;6.60;1.80;;;;;;;-148.88;41.86;-17125.47;5054530;28;20017;-84
2024/01/21 07:42:51;;;;;;;2.78;1.30;;;;;;;-148.88;42.36;-17125.47;5053568;28;20029;-84
2024/01/21 07:45:20;;;;;;;4.63;1.80;;;;;;;-148.88;42.52;-17125.47;5054740;28;20021;-83
2024/01/21 07:47:45;;;;;;;4.88;1.60;;;;;;;-148.88;42.88;-17125.47;5053390;28;20039;-84
2024/01/21 07:50:11;;;;;;;2.95;1.48;;;;;;;-148.88;43.33;-17125.47;5054172;28;20017;-83
2024/01/21 07:52:37;;;;;;;4.63;1.67;;;;;;;-148.88;43.50;-17125.47;5053837;28;20471;-83
2024/01/21 07:55:05;;;;;;;4.13;1.60;;;;;;;-148.88;42.97;-17125.47;5052285;28;20494;-85
2024/01/21 07:57:30;;;;;;;3.35;1.70;;;;;;;-148.88;43.76;-17125.47;5053763;28;20430;-84
2024/01/21 08:00:03;;;;;;;4.80;1.83;;;;;;;-148.88;43.27;-17125.47;5054878;28;20051;-84
2024/01/21 08:02:29;;;;;;;3.75;1.70;;;;;;;-148.88;43.82;-17125.47;5054291;28;20021;-82
2024/01/21 08:04:54;;;;;;;5.88;1.90;;;;;;;-148.88;43.12;-17125.47;5054845;28;20045;-84
2024/01/21 08:07:20;;;;;;;4.40;1.98;;;;;;;-148.88;44.00;-17125.47;5058321;28;20111;-84
2024/01/21 08:09:45;;;;;;;4.40;1.67;;;;;;;-148.88;44.89;-17125.47;5057534;28;20436;-84
2024/01/21 08:12:10;;;;;;;3.50;1.80;;;;;;;-148.88;44.28;-17125.47;5057220;28;20021;-84
2024/01/21 08:14:36;;;;;;;4.53;1.63;;;;;;;-148.88;44.86;-17125.47;5057160;28;20036;-84
2024/01/21 08:17:04;;;;;;;4.63;1.60;;;;;;;-148.88;46.43;-17125.47;5056105;28;20108;-85
2024/01/21 08:19:30;;;;;;;5.75;2.17;;;;;;;-148.88;46.05;-17125.47;5056698;28;20115;-85
2024/01/21 08:21:55;;;;;;;6.43;2.35;;;;;;;-148.88;47.24;-17125.47;5056305;28;20056;-85
2024/01/21 08:24:20;;;;;;;4.75;2.13;;;;;;;-148.88;46.43;-17125.47;5055644;28;20021;-84
2024/01/21 08:26:46;;;;;;;9.00;1.95;;;;;;;-148.88;45.33;-17125.47;5055946;28;20017;-85
2024/01/21 08:29:11;;;;;;;6.93;2.80;;;;;;;-148.88;45.59;-17125.47;5056666;28;20070;-85
2024/01/21 08:31:44;;;;;;;4.85;2.25;;;;;;;-148.88;46.15;-17125.47;5070649;28;20033;-84
2024/01/21 08:34:10;;;;;;;6.00;2.22;;;;;;;-148.88;46.26;-17125.47;5081154;28;20031;-84
2024/01/21 08:36:35;;;;;;;3.60;1.50;;;;;;;-148.88;45.67;-17125.47;5070490;28;20057;-85
2024/01/21 08:39:01;;;;;;;4.53;1.92;;;;;;;-148.88;44.53;-17125.47;5064758;28;20045;-85
2024/01/21 08:41:26;;;;;;;4.70;1.92;;;;;;;-148.88;46.17;-17125.47;5062263;28;20032;-85
2024/01/21 08:43:51;;;;;;;5.35;2.08;;;;;;;-148.88;45.74;-17125.47;5061149;28;20032;-85
2024/01/21 08:46:17;;;;;;;5.82;2.05;;;;;;;-148.88;45.77;-17125.47;5060857;28;20044;-85
2024/01/21 08:48:44;;;;;;;3.17;1.52;;;;;;;-148.88;45.54;-17125.47;5062575;28;20482;-85
2024/01/21 08:51:09;;;;;;;4.97;1.98;;;;;;;-148.88;45.89;-17125.47;5059138;28;20059;-87
2024/01/21 08:53:35;;;;;;;7.15;2.55;;;;;;;-148.88;45.97;-17125.47;5056450;28;20470;-86
2024/01/21 08:56:00;;;;;;;5.30;2.08;;;;;;;-148.88;45.96;-17125.47;5056144;28;20017;-86
2024/01/21 08:58:26;;;;;;;6.55;2.28;;;;;;;-148.88;46.21;-17125.47;5056392;28;20028;-86
2024/01/21 09:00:51;;;;;;;10.80;2.47;;;;;;;-148.88;46.71;-17125.47;5056592;28;20024;-86
2024/01/21 09:03:16;;;;;;;6.13;1.95;;;;;;;-148.88;46.67;-17125.47;5056153;28;20056;-86
2024/01/21 09:05:42;;;;;;;4.85;1.67;;;;;;;-148.88;45.90;-17125.47;5054872;28;20549;-85
2024/01/21 09:08:07;;;;;;;6.82;1.92;;;;;;;-148.88;46.43;-17125.47;5055792;28;20365;-86
2024/01/21 09:10:32;;;;;;;4.63;1.80;;;;;;;-148.88;47.19;-17125.47;5056059;28;20021;-86
2024/01/21 09:12:59;;;;;;;3.50;1.52;;;;;;;-148.88;46.28;-17125.47;5056876;28;20108;-86
2024/01/21 09:15:24;;;;;;;3.88;1.73;;;;;;;-148.88;45.74;-17125.47;5054382;28;20112;-86
2024/01/21 09:17:50;;;;;;;7.25;2.67;;;;;;;-148.88;46.80;-17125.47;5055989;28;20075;-86
2024/01/21 09:20:16;;;;;;;10.05;2.13;;;;;;;-148.88;46.23;-17125.47;5055069;28;20024;-87
2024/01/21 09:22:41;;;;;;;6.68;2.67;;;;;;;-148.88;47.04;-17125.47;5054724;28;20039;-85
2024/01/21 09:25:07;;;;;;;4.97;2.13;;;;;;;-148.88;48.39;-17125.47;5055608;28;20082;-86
2024/01/21 09:27:32;;;;;;;9.07;2.55;;;;;;;-148.88;46.86;-17125.47;5055065;28;20025;-86
2024/01/21 09:30:06;;;;;;;8.95;2.67;;;;;;;-148.88;48.17;-17125.47;5055659;28;20052;-87
2024/01/21 09:32:32;;;;;;;6.03;2.20;;;;;;;-148.88;47.48;-17125.47;5055102;28;20025;-87
2024/01/21 09:34:57;;;;;;;3.78;1.85;;;;;;;-148.88;46.58;-17125.47;5053910;28;20048;-87
2024/01/21 09:37:23;;;;;;;5.03;1.90;;;;;;;-148.88;47.61;-17125.47;5055238;28;20146;-88
2024/01/21 09:39:48;;;;;;;3.35;1.65;;;;;;;-148.88;46.28;-17125.47;5055290;28;20021;-87
2024/01/21 09:42:17;;;;;;;6.05;1.80;;;;;;;-148.88;46.85;-17125.47;5054274;28;20025;-86
2024/01/21 09:44:42;;;;;;;6.05;2.47;;;;;;;-148.88;46.65;-17125.47;5053855;28;20021;-86
2024/01/21 09:47:10;;;;;;;11.57;2.92;;;;;;;-148.88;46.33;-17125.47;5054301;28;20493;-86
2024/01/21 09:49:36;;;;;;;5.85;2.08;;;;;;;-148.88;45.48;-17125.47;5055207;28;20438;-87
2024/01/21 09:52:04;;;;;;;5.32;1.90;;;;;;;-148.88;45.36;-17125.47;5055090;28;20047;-86
2024/01/21 09:54:29;;;;;;;6.75;2.70;;;;;;;-148.88;44.94;-17125.47;5055025;28;20028;-87
2024/01/21 09:56:55;;;;;;;6.47;2.15;;;;;;;-148.88;44.54;-17125.47;5053720;28;20426;-86
2024/01/21 09:59:20;;;;;;;5.95;1.98;;;;;;;-148.88;44.88;-17125.47;5053900;28;20119;-87
2024/01/21 10:01:46;;;;;;;4.47;1.98;;;;;;;-148.88;44.81;-17125.47;5055151;28;20092;-84
2024/01/21 10:04:14;;;;;;;4.93;2.08;;;;;;;-148.88;45.59;-17125.47;5055394;28;20112;-87
2024/01/21 10:06:40;;;;;;;6.38;2.63;;;;;;;-148.88;45.89;-17125.47;5053420;28;20021;-87
2024/01/21 10:09:24;;;;;;;6.38;1.95;;;;;;;-148.88;45.07;-17125.47;5054853;28;20023;-87
2024/01/21 10:11:53;;;;;;;4.28;2.15;;;;;;;-148.88;46.02;-17125.47;5053618;28;20025;-88
2024/01/21 10:14:20;;;;;;;7.35;2.75;;;;;;;-148.88;45.39;-17125.47;5052930;28;20499;-87
2024/01/21 10:16:46;;;;;;;6.50;2.40;;;;;;;-148.88;46.63;-17125.47;5053648;28;20455;-86
2024/01/21 10:19:27;;;;;;;7.45;2.80;;;;;;;-148.88;45.19;-17125.47;5053859;28;20052;-88
2024/01/21 10:22:20;;;;;;;6.75;2.63;;;;;;;-148.88;45.34;-17125.47;5054191;28;20090;-87
2024/01/21 10:24:47;;;;;;;6.20;2.38;;;;;;;-148.88;45.00;-17125.47;5053924;28;20031;-86
2024/01/21 10:27:13;;;;;;;6.10;2.67;;;;;;;-148.88;45.59;-17125.47;5054392;28;20071;-87
2024/01/21 10:29:44;;;;;;;6.22;2.80;;;;;;;-148.88;46.43;-17125.47;5053175;28;20029;-86
2024/01/21 10:32:14;;;;;;;6.00;2.38;;;;;;;-148.88;46.23;-17125.47;5053978;28;20021;-88
2024/01/21 10:34:44;;;;;;;6.00;2.60;;;;;;;-148.88;47.41;-17125.47;5054594;28;20025;-87
2024/01/21 10:37:12;;;;;;;6.65;3.20;;;;;;;-148.88;46.13;-17125.47;5053208;28;20020;-87
2024/01/21 10:39:37;;;;;;;6.28;2.80;;;;;;;-148.88;45.75;-17125.47;5053747;28;20382;-89
2024/01/21 10:42:08;;;;;;;7.00;2.47;;;;;;;-148.88;46.69;-17125.47;5054449;28;20028;-87
2024/01/21 10:44:39;;;;;;;6.30;2.53;;;;;;;-148.88;46.30;-17125.47;5053581;28;20029;-85
2024/01/21 10:47:08;;;;;;;5.05;2.50;;;;;;;-148.88;46.07;-17125.47;5054933;28;20052;-83
2024/01/21 10:49:33;;;;;;;9.05;3.08;;;;;;;-148.88;46.03;-17125.47;5053130;28;20062;-87
2024/01/21 10:51:59;;;;;;;9.93;2.95;;;;;;;-148.88;45.05;-17125.47;5053448;28;20112;-84
2024/01/21 10:54:26;;;;;;;7.95;3.47;;;;;;;-148.88;45.74;-17125.47;5052702;28;20403;-87
2024/01/21 10:56:51;;;;;;;8.05;3.22;;;;;;;-148.88;45.99;-17125.47;5054128;28;20021;-84
2024/01/21 10:59:25;;;;;;;9.02;3.40;;;;;;;-148.88;46.28;-17125.47;5052626;28;20025;-87
2024/01/21 11:01:51;;;;;;;;;;;;;;;-148.88;46.54;-17125.47;5054860;28;20106;-88
2024/01/21 11:04:21;;;;;;;6.75;3.13;;;;;;;-148.88;47.22;-17125.47;5053832;28;19921;-84
2024/01/21 11:06:51;;;;;;;11.32;4.13;;;;;;;-148.88;47.00;-17125.47;5052641;28;20013;-85